sensor_id;sensor_type;location;lat;lon;timestamp;P1;durP1;ratioP1;P2;durP2;ratioP2
20042;SDS011;10182;52.896;6.496;2023-06-26T00:01:34;11.30;;;10.20;;
20042;SDS011;10182;52.896;6.496;2023-06-26T00:06:37;9.83;;;8.83;;
20042;SDS011;10182;52.896;6.496;2023-06-26T00:11:47;13.70;;;11.37;;
20042;SDS011;10182;52.896;6.496;2023-06-26T00:16:49;11.73;;;10.63;;
20042;SDS011;10182;52.896;6.496;2023-06-26T00:21:53;10.17;;;9.27;;
20042;SDS011;10182;52.896;6.496;2023-06-26T00:26:55;11.93;;;10.83;;
20042;SDS011;10182;52.896;6.496;2023-06-26T00:31:57;10.30;;;9.30;;
20042;SDS011;10182;52.896;6.496;2023-06-26T00:37:00;11.83;;;10.63;;
20042;SDS011;10182;52.896;6.496;2023-06-26T00:42:03;11.97;;;10.97;;
20042;SDS011;10182;52.896;6.496;2023-06-26T00:47:05;11.90;;;10.70;;
20042;SDS011;10182;52.896;6.496;2023-06-26T00:52:08;10.90;;;9.80;;
20042;SDS011;10182;52.896;6.496;2023-06-26T00:57:10;12.20;;;10.97;;
20042;SDS011;10182;52.896;6.496;2023-06-26T01:02:12;10.47;;;9.40;;
20042;SDS011;10182;52.896;6.496;2023-06-26T01:07:21;11.13;;;10.07;;
20042;SDS011;10182;52.896;6.496;2023-06-26T01:12:24;11.03;;;10.03;;
20042;SDS011;10182;52.896;6.496;2023-06-26T01:17:26;12.20;;;11.00;;
20042;SDS011;10182;52.896;6.496;2023-06-26T01:22:36;12.50;;;11.33;;
20042;SDS011;10182;52.896;6.496;2023-06-26T01:27:46;12.37;;;10.83;;
20042;SDS011;10182;52.896;6.496;2023-06-26T01:32:50;10.67;;;9.67;;
20042;SDS011;10182;52.896;6.496;2023-06-26T01:37:52;12.47;;;11.17;;
20042;SDS011;10182;52.896;6.496;2023-06-26T01:42:55;11.50;;;10.50;;
20042;SDS011;10182;52.896;6.496;2023-06-26T01:47:58;12.70;;;11.60;;
20042;SDS011;10182;52.896;6.496;2023-06-26T01:53:04;14.00;;;12.30;;
20042;SDS011;10182;52.896;6.496;2023-06-26T01:58:13;12.67;;;11.57;;
20042;SDS011;10182;52.896;6.496;2023-06-26T02:03:17;13.57;;;12.37;;
20042;SDS011;10182;52.896;6.496;2023-06-26T02:08:18;13.37;;;12.13;;
20042;SDS011;10182;52.896;6.496;2023-06-26T02:13:21;13.37;;;12.07;;
20042;SDS011;10182;52.896;6.496;2023-06-26T02:18:23;14.03;;;12.67;;
20042;SDS011;10182;52.896;6.496;2023-06-26T02:23:25;13.90;;;12.57;;
20042;SDS011;10182;52.896;6.496;2023-06-26T02:28:28;15.37;;;13.93;;
20042;SDS011;10182;52.896;6.496;2023-06-26T02:33:31;15.47;;;14.10;;
20042;SDS011;10182;52.896;6.496;2023-06-26T02:38:32;14.97;;;13.67;;
20042;SDS011;10182;52.896;6.496;2023-06-26T02:43:35;15.33;;;13.80;;
20042;SDS011;10182;52.896;6.496;2023-06-26T02:48:37;15.93;;;14.43;;
20042;SDS011;10182;52.896;6.496;2023-06-26T02:53:39;15.97;;;14.37;;
20042;SDS011;10182;52.896;6.496;2023-06-26T02:58:41;15.50;;;14.00;;
20042;SDS011;10182;52.896;6.496;2023-06-26T03:03:43;16.03;;;14.57;;
20042;SDS011;10182;52.896;6.496;2023-06-26T03:08:47;17.30;;;15.53;;
20042;SDS011;10182;52.896;6.496;2023-06-26T03:13:50;16.37;;;14.87;;
20042;SDS011;10182;52.896;6.496;2023-06-26T03:18:52;15.47;;;14.00;;
20042;SDS011;10182;52.896;6.496;2023-06-26T03:23:53;16.77;;;15.20;;
20042;SDS011;10182;52.896;6.496;2023-06-26T03:28:56;15.33;;;13.80;;
20042;SDS011;10182;52.896;6.496;2023-06-26T03:33:58;14.60;;;12.87;;
20042;SDS011;10182;52.896;6.496;2023-06-26T03:39:00;13.57;;;12.27;;
20042;SDS011;10182;52.896;6.496;2023-06-26T03:44:03;14.70;;;13.30;;
20042;SDS011;10182;52.896;6.496;2023-06-26T03:49:05;16.50;;;12.97;;
20042;SDS011;10182;52.896;6.496;2023-06-26T03:54:06;14.10;;;12.70;;
20042;SDS011;10182;52.896;6.496;2023-06-26T03:59:09;14.53;;;12.43;;
20042;SDS011;10182;52.896;6.496;2023-06-26T04:04:11;13.70;;;10.67;;
20042;SDS011;10182;52.896;6.496;2023-06-26T04:09:14;12.53;;;10.40;;
20042;SDS011;10182;52.896;6.496;2023-06-26T04:14:17;11.87;;;10.47;;
20042;SDS011;10182;52.896;6.496;2023-06-26T04:19:18;13.47;;;12.07;;
20042;SDS011;10182;52.896;6.496;2023-06-26T04:24:20;13.40;;;12.10;;
20042;SDS011;10182;52.896;6.496;2023-06-26T04:29:23;19.27;;;13.27;;
20042;SDS011;10182;52.896;6.496;2023-06-26T04:34:25;13.20;;;11.77;;
20042;SDS011;10182;52.896;6.496;2023-06-26T04:39:28;13.63;;;10.67;;
20042;SDS011;10182;52.896;6.496;2023-06-26T04:44:31;13.90;;;10.20;;
20042;SDS011;10182;52.896;6.496;2023-06-26T04:49:33;15.80;;;9.57;;
20042;SDS011;10182;52.896;6.496;2023-06-26T04:54:35;14.07;;;9.50;;
20042;SDS011;10182;52.896;6.496;2023-06-26T04:59:38;20.83;;;9.60;;
20042;SDS011;10182;52.896;6.496;2023-06-26T05:04:39;12.37;;;9.07;;
20042;SDS011;10182;52.896;6.496;2023-06-26T05:09:42;14.80;;;9.27;;
20042;SDS011;10182;52.896;6.496;2023-06-26T05:14:45;16.93;;;10.03;;
20042;SDS011;10182;52.896;6.496;2023-06-26T05:19:47;14.70;;;9.07;;
20042;SDS011;10182;52.896;6.496;2023-06-26T05:24:49;15.77;;;9.47;;
20042;SDS011;10182;52.896;6.496;2023-06-26T05:29:54;16.17;;;8.67;;
20042;SDS011;10182;52.896;6.496;2023-06-26T05:34:56;13.87;;;9.33;;
20042;SDS011;10182;52.896;6.496;2023-06-26T05:40:00;13.97;;;8.73;;
20042;SDS011;10182;52.896;6.496;2023-06-26T05:45:05;14.13;;;9.50;;
20042;SDS011;10182;52.896;6.496;2023-06-26T05:50:07;15.27;;;8.00;;
20042;SDS011;10182;52.896;6.496;2023-06-26T05:55:10;11.53;;;6.93;;
20042;SDS011;10182;52.896;6.496;2023-06-26T06:00:14;12.63;;;6.47;;
20042;SDS011;10182;52.896;6.496;2023-06-26T06:05:16;8.13;;;4.70;;
20042;SDS011;10182;52.896;6.496;2023-06-26T06:10:18;7.10;;;3.80;;
20042;SDS011;10182;52.896;6.496;2023-06-26T06:15:21;8.73;;;3.60;;
20042;SDS011;10182;52.896;6.496;2023-06-26T06:20:23;7.50;;;3.60;;
20042;SDS011;10182;52.896;6.496;2023-06-26T06:25:25;8.20;;;4.00;;
20042;SDS011;10182;52.896;6.496;2023-06-26T06:30:29;7.67;;;3.30;;
20042;SDS011;10182;52.896;6.496;2023-06-26T06:35:30;9.33;;;3.30;;
20042;SDS011;10182;52.896;6.496;2023-06-26T06:40:32;7.70;;;3.20;;
20042;SDS011;10182;52.896;6.496;2023-06-26T06:45:35;6.57;;;3.00;;
20042;SDS011;10182;52.896;6.496;2023-06-26T06:50:38;7.63;;;3.13;;
20042;SDS011;10182;52.896;6.496;2023-06-26T06:55:39;8.60;;;3.33;;
20042;SDS011;10182;52.896;6.496;2023-06-26T07:00:42;5.87;;;2.27;;
20042;SDS011;10182;52.896;6.496;2023-06-26T07:05:44;5.63;;;2.10;;
20042;SDS011;10182;52.896;6.496;2023-06-26T07:10:46;8.23;;;2.70;;
20042;SDS011;10182;52.896;6.496;2023-06-26T07:15:49;8.60;;;3.10;;
20042;SDS011;10182;52.896;6.496;2023-06-26T07:20:50;4.87;;;2.30;;
20042;SDS011;10182;52.896;6.496;2023-06-26T07:25:52;7.27;;;2.50;;
20042;SDS011;10182;52.896;6.496;2023-06-26T07:30:55;5.90;;;2.10;;
20042;SDS011;10182;52.896;6.496;2023-06-26T07:35:57;5.83;;;2.40;;
20042;SDS011;10182;52.896;6.496;2023-06-26T07:40:58;5.30;;;2.20;;
20042;SDS011;10182;52.896;6.496;2023-06-26T07:46:01;5.70;;;2.60;;
20042;SDS011;10182;52.896;6.496;2023-06-26T07:51:03;7.63;;;2.20;;
20042;SDS011;10182;52.896;6.496;2023-06-26T07:56:05;8.80;;;2.17;;
20042;SDS011;10182;52.896;6.496;2023-06-26T08:01:11;8.50;;;2.20;;
20042;SDS011;10182;52.896;6.496;2023-06-26T08:06:12;3.67;;;1.83;;
20042;SDS011;10182;52.896;6.496;2023-06-26T08:11:14;5.90;;;2.00;;
20042;SDS011;10182;52.896;6.496;2023-06-26T08:16:17;7.30;;;1.93;;
20042;SDS011;10182;52.896;6.496;2023-06-26T08:21:19;2.23;;;1.37;;
20042;SDS011;10182;52.896;6.496;2023-06-26T08:26:21;6.03;;;1.90;;
20042;SDS011;10182;52.896;6.496;2023-06-26T08:31:24;3.87;;;2.43;;
20042;SDS011;10182;52.896;6.496;2023-06-26T08:36:25;6.40;;;1.87;;
20042;SDS011;10182;52.896;6.496;2023-06-26T08:41:27;5.17;;;1.90;;
20042;SDS011;10182;52.896;6.496;2023-06-26T08:46:30;6.30;;;2.20;;
20042;SDS011;10182;52.896;6.496;2023-06-26T08:51:33;3.80;;;2.03;;
20042;SDS011;10182;52.896;6.496;2023-06-26T08:56:40;9.30;;;2.77;;
20042;SDS011;10182;52.896;6.496;2023-06-26T09:01:47;2.73;;;2.30;;
20042;SDS011;10182;52.896;6.496;2023-06-26T09:06:49;3.47;;;2.23;;
20042;SDS011;10182;52.896;6.496;2023-06-26T09:11:50;6.37;;;3.00;;
20042;SDS011;10182;52.896;6.496;2023-06-26T09:16:53;4.87;;;2.63;;
20042;SDS011;10182;52.896;6.496;2023-06-26T09:21:55;8.10;;;2.80;;
20042;SDS011;10182;52.896;6.496;2023-06-26T09:26:57;5.97;;;3.13;;
20042;SDS011;10182;52.896;6.496;2023-06-26T09:32:00;8.17;;;3.20;;
20042;SDS011;10182;52.896;6.496;2023-06-26T09:37:02;8.17;;;2.87;;
20042;SDS011;10182;52.896;6.496;2023-06-26T09:42:04;6.87;;;2.60;;
20042;SDS011;10182;52.896;6.496;2023-06-26T09:47:08;4.27;;;2.40;;
20042;SDS011;10182;52.896;6.496;2023-06-26T09:52:10;9.03;;;2.97;;
20042;SDS011;10182;52.896;6.496;2023-06-26T09:57:16;5.13;;;2.60;;
20042;SDS011;10182;52.896;6.496;2023-06-26T10:02:20;5.90;;;2.47;;
20042;SDS011;10182;52.896;6.496;2023-06-26T10:07:22;6.60;;;2.50;;
20042;SDS011;10182;52.896;6.496;2023-06-26T10:12:27;7.33;;;2.00;;
20042;SDS011;10182;52.896;6.496;2023-06-26T10:17:32;6.37;;;2.27;;
20042;SDS011;10182;52.896;6.496;2023-06-26T10:22:36;6.37;;;2.47;;
20042;SDS011;10182;52.896;6.496;2023-06-26T10:27:42;4.40;;;2.73;;
20042;SDS011;10182;52.896;6.496;2023-06-26T10:32:47;11.67;;;2.70;;
20042;SDS011;10182;52.896;6.496;2023-06-26T10:37:50;6.87;;;2.63;;
20042;SDS011;10182;52.896;6.496;2023-06-26T10:42:55;6.00;;;2.30;;
20042;SDS011;10182;52.896;6.496;2023-06-26T10:48:08;7.60;;;2.40;;
20042;SDS011;10182;52.896;6.496;2023-06-26T10:53:11;6.83;;;2.20;;
20042;SDS011;10182;52.896;6.496;2023-06-26T11:03:45;12.03;;;2.77;;
20042;SDS011;10182;52.896;6.496;2023-06-26T11:08:50;11.93;;;2.70;;
20042;SDS011;10182;52.896;6.496;2023-06-26T11:13:53;3.73;;;2.00;;
20042;SDS011;10182;52.896;6.496;2023-06-26T11:18:59;4.40;;;2.13;;
20042;SDS011;10182;52.896;6.496;2023-06-26T11:24:01;7.13;;;1.57;;
20042;SDS011;10182;52.896;6.496;2023-06-26T11:29:04;5.50;;;2.00;;
20042;SDS011;10182;52.896;6.496;2023-06-26T11:34:08;9.37;;;2.43;;
20042;SDS011;10182;52.896;6.496;2023-06-26T11:39:11;5.27;;;2.10;;
20042;SDS011;10182;52.896;6.496;2023-06-26T11:44:13;6.17;;;1.87;;
20042;SDS011;10182;52.896;6.496;2023-06-26T11:49:21;10.20;;;2.00;;
20042;SDS011;10182;52.896;6.496;2023-06-26T11:54:27;3.13;;;0.93;;
20042;SDS011;10182;52.896;6.496;2023-06-26T11:59:33;7.27;;;1.33;;
20042;SDS011;10182;52.896;6.496;2023-06-26T12:04:38;7.13;;;1.73;;
20042;SDS011;10182;52.896;6.496;2023-06-26T12:09:42;9.70;;;2.13;;
20042;SDS011;10182;52.896;6.496;2023-06-26T12:14:45;5.87;;;1.90;;
20042;SDS011;10182;52.896;6.496;2023-06-26T12:19:48;5.97;;;1.60;;
20042;SDS011;10182;52.896;6.496;2023-06-26T12:24:50;8.33;;;2.03;;
20042;SDS011;10182;52.896;6.496;2023-06-26T12:29:53;7.80;;;1.90;;
20042;SDS011;10182;52.896;6.496;2023-06-26T12:34:57;6.37;;;1.80;;
20042;SDS011;10182;52.896;6.496;2023-06-26T12:39:59;5.17;;;1.57;;
20042;SDS011;10182;52.896;6.496;2023-06-26T12:45:09;8.70;;;1.80;;
20042;SDS011;10182;52.896;6.496;2023-06-26T12:50:13;6.10;;;1.70;;
20042;SDS011;10182;52.896;6.496;2023-06-26T12:55:17;6.97;;;1.40;;
20042;SDS011;10182;52.896;6.496;2023-06-26T13:00:18;2.87;;;1.33;;
20042;SDS011;10182;52.896;6.496;2023-06-26T13:05:22;2.50;;;1.20;;
20042;SDS011;10182;52.896;6.496;2023-06-26T13:10:23;6.87;;;1.70;;
20042;SDS011;10182;52.896;6.496;2023-06-26T13:15:27;4.33;;;1.57;;
20042;SDS011;10182;52.896;6.496;2023-06-26T13:20:30;5.23;;;1.80;;
20042;SDS011;10182;52.896;6.496;2023-06-26T13:25:32;7.07;;;2.17;;
20042;SDS011;10182;52.896;6.496;2023-06-26T13:30:34;9.63;;;2.20;;
20042;SDS011;10182;52.896;6.496;2023-06-26T13:35:37;2.70;;;1.60;;
20042;SDS011;10182;52.896;6.496;2023-06-26T13:40:39;6.53;;;2.07;;
20042;SDS011;10182;52.896;6.496;2023-06-26T13:45:41;9.20;;;1.90;;
20042;SDS011;10182;52.896;6.496;2023-06-26T13:50:44;6.00;;;1.50;;
20042;SDS011;10182;52.896;6.496;2023-06-26T13:55:46;7.03;;;1.60;;
20042;SDS011;10182;52.896;6.496;2023-06-26T14:00:48;9.33;;;1.77;;
20042;SDS011;10182;52.896;6.496;2023-06-26T14:05:51;8.23;;;2.50;;
20042;SDS011;10182;52.896;6.496;2023-06-26T14:10:52;6.90;;;2.23;;
20042;SDS011;10182;52.896;6.496;2023-06-26T14:15:54;5.47;;;1.63;;
20042;SDS011;10182;52.896;6.496;2023-06-26T14:20:58;7.80;;;1.60;;
20042;SDS011;10182;52.896;6.496;2023-06-26T14:25:59;4.23;;;1.60;;
20042;SDS011;10182;52.896;6.496;2023-06-26T14:31:01;9.07;;;1.83;;
20042;SDS011;10182;52.896;6.496;2023-06-26T14:36:04;4.23;;;1.63;;
20042;SDS011;10182;52.896;6.496;2023-06-26T14:41:06;6.77;;;1.90;;
20042;SDS011;10182;52.896;6.496;2023-06-26T14:46:07;5.30;;;1.50;;
20042;SDS011;10182;52.896;6.496;2023-06-26T14:51:10;5.70;;;1.83;;
20042;SDS011;10182;52.896;6.496;2023-06-26T14:56:12;10.70;;;1.50;;
20042;SDS011;10182;52.896;6.496;2023-06-26T15:01:14;7.73;;;1.80;;
20042;SDS011;10182;52.896;6.496;2023-06-26T15:06:17;6.60;;;1.67;;
20042;SDS011;10182;52.896;6.496;2023-06-26T15:11:19;5.03;;;2.00;;
20042;SDS011;10182;52.896;6.496;2023-06-26T15:16:21;5.00;;;1.70;;
20042;SDS011;10182;52.896;6.496;2023-06-26T15:21:24;3.27;;;1.30;;
20042;SDS011;10182;52.896;6.496;2023-06-26T15:26:25;6.60;;;1.80;;
20042;SDS011;10182;52.896;6.496;2023-06-26T15:31:28;8.77;;;1.90;;
20042;SDS011;10182;52.896;6.496;2023-06-26T15:36:31;7.10;;;2.03;;
20042;SDS011;10182;52.896;6.496;2023-06-26T15:41:33;3.67;;;1.70;;
20042;SDS011;10182;52.896;6.496;2023-06-26T15:46:37;3.87;;;1.43;;
20042;SDS011;10182;52.896;6.496;2023-06-26T15:51:40;3.10;;;1.40;;
20042;SDS011;10182;52.896;6.496;2023-06-26T15:56:42;4.53;;;1.50;;
20042;SDS011;10182;52.896;6.496;2023-06-26T16:01:43;3.27;;;1.50;;
20042;SDS011;10182;52.896;6.496;2023-06-26T16:06:47;8.70;;;2.33;;
20042;SDS011;10182;52.896;6.496;2023-06-26T16:11:48;3.67;;;1.40;;
20042;SDS011;10182;52.896;6.496;2023-06-26T16:16:50;6.57;;;1.90;;
20042;SDS011;10182;52.896;6.496;2023-06-26T16:21:53;4.30;;;1.80;;
20042;SDS011;10182;52.896;6.496;2023-06-26T16:26:55;3.83;;;1.53;;
20042;SDS011;10182;52.896;6.496;2023-06-26T16:31:56;5.80;;;1.60;;
20042;SDS011;10182;52.896;6.496;2023-06-26T16:37:02;2.73;;;1.10;;
20042;SDS011;10182;52.896;6.496;2023-06-26T16:42:07;2.87;;;1.50;;
20042;SDS011;10182;52.896;6.496;2023-06-26T16:47:09;5.03;;;1.60;;
20042;SDS011;10182;52.896;6.496;2023-06-26T16:52:12;4.00;;;1.10;;
20042;SDS011;10182;52.896;6.496;2023-06-26T16:57:14;3.27;;;1.20;;
20042;SDS011;10182;52.896;6.496;2023-06-26T17:02:16;4.07;;;1.10;;
20042;SDS011;10182;52.896;6.496;2023-06-26T17:07:19;5.67;;;1.50;;
20042;SDS011;10182;52.896;6.496;2023-06-26T17:12:21;3.47;;;1.13;;
20042;SDS011;10182;52.896;6.496;2023-06-26T17:17:23;3.47;;;1.50;;
20042;SDS011;10182;52.896;6.496;2023-06-26T17:22:26;4.13;;;0.93;;
20042;SDS011;10182;52.896;6.496;2023-06-26T17:27:27;3.67;;;1.50;;
20042;SDS011;10182;52.896;6.496;2023-06-26T17:32:29;4.67;;;1.10;;
20042;SDS011;10182;52.896;6.496;2023-06-26T17:37:32;4.47;;;1.50;;
20042;SDS011;10182;52.896;6.496;2023-06-26T17:42:34;4.83;;;1.40;;
20042;SDS011;10182;52.896;6.496;2023-06-26T17:47:39;2.60;;;1.00;;
20042;SDS011;10182;52.896;6.496;2023-06-26T17:52:43;5.00;;;1.43;;
20042;SDS011;10182;52.896;6.496;2023-06-26T17:57:45;4.27;;;1.53;;
20042;SDS011;10182;52.896;6.496;2023-06-26T18:02:47;5.23;;;1.47;;
20042;SDS011;10182;52.896;6.496;2023-06-26T18:07:51;3.93;;;1.37;;
20042;SDS011;10182;52.896;6.496;2023-06-26T18:12:53;2.63;;;1.20;;
20042;SDS011;10182;52.896;6.496;2023-06-26T18:17:56;4.27;;;1.20;;
20042;SDS011;10182;52.896;6.496;2023-06-26T18:22:59;4.73;;;1.30;;
20042;SDS011;10182;52.896;6.496;2023-06-26T18:28:01;4.67;;;1.33;;
20042;SDS011;10182;52.896;6.496;2023-06-26T18:33:02;3.97;;;1.30;;
20042;SDS011;10182;52.896;6.496;2023-06-26T18:38:05;3.10;;;1.27;;
20042;SDS011;10182;52.896;6.496;2023-06-26T18:43:11;3.10;;;1.23;;
20042;SDS011;10182;52.896;6.496;2023-06-26T18:48:13;6.50;;;1.37;;
20042;SDS011;10182;52.896;6.496;2023-06-26T18:53:16;3.87;;;1.30;;
20042;SDS011;10182;52.896;6.496;2023-06-26T18:58:17;4.80;;;1.10;;
20042;SDS011;10182;52.896;6.496;2023-06-26T19:03:19;3.37;;;1.00;;
20042;SDS011;10182;52.896;6.496;2023-06-26T19:08:22;3.60;;;1.20;;
20042;SDS011;10182;52.896;6.496;2023-06-26T19:13:24;3.67;;;1.30;;
20042;SDS011;10182;52.896;6.496;2023-06-26T19:18:26;4.00;;;1.50;;
20042;SDS011;10182;52.896;6.496;2023-06-26T19:23:29;7.90;;;1.60;;
20042;SDS011;10182;52.896;6.496;2023-06-26T19:28:33;3.07;;;1.57;;
20042;SDS011;10182;52.896;6.496;2023-06-26T19:33:35;5.27;;;1.10;;
20042;SDS011;10182;52.896;6.496;2023-06-26T19:38:38;11.20;;;1.70;;
20042;SDS011;10182;52.896;6.496;2023-06-26T19:43:40;6.53;;;1.53;;
20042;SDS011;10182;52.896;6.496;2023-06-26T19:48:41;6.73;;;1.80;;
20042;SDS011;10182;52.896;6.496;2023-06-26T19:53:45;4.80;;;1.60;;
20042;SDS011;10182;52.896;6.496;2023-06-26T19:58:47;4.87;;;1.40;;
20042;SDS011;10182;52.896;6.496;2023-06-26T20:03:49;3.00;;;1.27;;
20042;SDS011;10182;52.896;6.496;2023-06-26T20:08:52;5.20;;;1.50;;
20042;SDS011;10182;52.896;6.496;2023-06-26T20:13:55;5.77;;;1.77;;
20042;SDS011;10182;52.896;6.496;2023-06-26T20:18:56;8.53;;;1.70;;
20042;SDS011;10182;52.896;6.496;2023-06-26T20:24:00;5.17;;;1.60;;
20042;SDS011;10182;52.896;6.496;2023-06-26T20:29:01;8.33;;;1.83;;
20042;SDS011;10182;52.896;6.496;2023-06-26T20:34:03;3.53;;;1.10;;
20042;SDS011;10182;52.896;6.496;2023-06-26T20:39:06;2.53;;;1.47;;
20042;SDS011;10182;52.896;6.496;2023-06-26T20:44:08;6.00;;;1.20;;
20042;SDS011;10182;52.896;6.496;2023-06-26T20:49:10;4.53;;;1.40;;
20042;SDS011;10182;52.896;6.496;2023-06-26T20:54:14;6.53;;;1.70;;
20042;SDS011;10182;52.896;6.496;2023-06-26T20:59:16;5.73;;;1.67;;
20042;SDS011;10182;52.896;6.496;2023-06-26T21:04:18;4.50;;;1.40;;
20042;SDS011;10182;52.896;6.496;2023-06-26T21:09:21;4.67;;;1.80;;
20042;SDS011;10182;52.896;6.496;2023-06-26T21:14:22;8.03;;;2.00;;
20042;SDS011;10182;52.896;6.496;2023-06-26T21:19:24;5.07;;;1.70;;
20042;SDS011;10182;52.896;6.496;2023-06-26T21:24:27;6.13;;;1.57;;
20042;SDS011;10182;52.896;6.496;2023-06-26T21:29:29;8.63;;;1.73;;
20042;SDS011;10182;52.896;6.496;2023-06-26T21:34:30;10.03;;;1.87;;
20042;SDS011;10182;52.896;6.496;2023-06-26T21:39:33;6.57;;;1.70;;
20042;SDS011;10182;52.896;6.496;2023-06-26T21:44:35;7.00;;;1.80;;
20042;SDS011;10182;52.896;6.496;2023-06-26T21:49:37;6.97;;;2.23;;
20042;SDS011;10182;52.896;6.496;2023-06-26T21:54:41;5.97;;;2.00;;
20042;SDS011;10182;52.896;6.496;2023-06-26T21:59:42;6.93;;;2.20;;
20042;SDS011;10182;52.896;6.496;2023-06-26T22:04:44;5.87;;;2.13;;
20042;SDS011;10182;52.896;6.496;2023-06-26T22:09:47;8.77;;;2.20;;
20042;SDS011;10182;52.896;6.496;2023-06-26T22:14:48;8.13;;;2.30;;
20042;SDS011;10182;52.896;6.496;2023-06-26T22:19:50;10.80;;;2.90;;
20042;SDS011;10182;52.896;6.496;2023-06-26T22:24:53;7.43;;;2.27;;
20042;SDS011;10182;52.896;6.496;2023-06-26T22:29:55;8.40;;;2.60;;
20042;SDS011;10182;52.896;6.496;2023-06-26T22:34:57;6.20;;;2.30;;
20042;SDS011;10182;52.896;6.496;2023-06-26T22:40:00;6.17;;;2.33;;
20042;SDS011;10182;52.896;6.496;2023-06-26T22:45:06;5.53;;;2.83;;
20042;SDS011;10182;52.896;6.496;2023-06-26T22:50:10;6.93;;;2.70;;
20042;SDS011;10182;52.896;6.496;2023-06-26T22:55:13;7.00;;;2.93;;
20042;SDS011;10182;52.896;6.496;2023-06-26T23:00:15;5.73;;;3.20;;
20042;SDS011;10182;52.896;6.496;2023-06-26T23:05:18;8.00;;;3.30;;
20042;SDS011;10182;52.896;6.496;2023-06-26T23:10:21;12.90;;;3.37;;
20042;SDS011;10182;52.896;6.496;2023-06-26T23:15:23;11.63;;;3.73;;
20042;SDS011;10182;52.896;6.496;2023-06-26T23:20:25;8.60;;;3.80;;
20042;SDS011;10182;52.896;6.496;2023-06-26T23:25:28;9.87;;;3.40;;
20042;SDS011;10182;52.896;6.496;2023-06-26T23:30:34;7.60;;;3.53;;
20042;SDS011;10182;52.896;6.496;2023-06-26T23:35:36;8.87;;;3.13;;
20042;SDS011;10182;52.896;6.496;2023-06-26T23:40:41;9.17;;;4.43;;
20042;SDS011;10182;52.896;6.496;2023-06-26T23:45:43;13.17;;;4.33;;
20042;SDS011;10182;52.896;6.496;2023-06-26T23:50:45;6.13;;;3.70;;
20042;SDS011;10182;52.896;6.496;2023-06-26T23:55:49;7.17;;;3.50;;
